sensor_id;sensor_type;location;lat;lon;timestamp;P1;durP1;ratioP1;P2;durP2;ratioP2
54849;SDS011;47660;51.334;12.396;2023-07-22T00:01:26;3.55;;;1.95;;
54849;SDS011;47660;51.334;12.396;2023-07-22T00:03:52;3.38;;;2.40;;
54849;SDS011;47660;51.334;12.396;2023-07-22T00:06:19;2.42;;;1.88;;
54849;SDS011;47660;51.334;12.396;2023-07-22T00:08:49;3.58;;;2.70;;
54849;SDS011;47660;51.334;12.396;2023-07-22T00:11:15;3.47;;;2.55;;
54849;SDS011;47660;51.334;12.396;2023-07-22T00:13:40;7.18;;;2.30;;
54849;SDS011;47660;51.334;12.396;2023-07-22T00:16:09;5.55;;;2.20;;
54849;SDS011;47660;51.334;12.396;2023-07-22T00:18:39;3.10;;;2.42;;
54849;SDS011;47660;51.334;12.396;2023-07-22T00:21:06;3.85;;;2.90;;
54849;SDS011;47660;51.334;12.396;2023-07-22T00:23:37;4.57;;;2.50;;
54849;SDS011;47660;51.334;12.396;2023-07-22T00:26:02;3.25;;;2.33;;
54849;SDS011;47660;51.334;12.396;2023-07-22T00:28:28;6.07;;;2.88;;
54849;SDS011;47660;51.334;12.396;2023-07-22T00:30:56;10.52;;;2.40;;
54849;SDS011;47660;51.334;12.396;2023-07-22T00:33:22;6.13;;;3.28;;
54849;SDS011;47660;51.334;12.396;2023-07-22T00:35:51;4.93;;;3.00;;
54849;SDS011;47660;51.334;12.396;2023-07-22T00:38:16;4.55;;;2.80;;
54849;SDS011;47660;51.334;12.396;2023-07-22T00:40:42;4.60;;;2.83;;
54849;SDS011;47660;51.334;12.396;2023-07-22T00:43:11;4.70;;;2.72;;
54849;SDS011;47660;51.334;12.396;2023-07-22T00:45:36;3.75;;;3.17;;
54849;SDS011;47660;51.334;12.396;2023-07-22T00:48:02;4.07;;;2.72;;
54849;SDS011;47660;51.334;12.396;2023-07-22T00:50:31;3.88;;;3.10;;
54849;SDS011;47660;51.334;12.396;2023-07-22T00:53:00;4.40;;;3.90;;
54849;SDS011;47660;51.334;12.396;2023-07-22T00:55:25;4.93;;;3.53;;
54849;SDS011;47660;51.334;12.396;2023-07-22T00:57:52;5.65;;;3.33;;
54849;SDS011;47660;51.334;12.396;2023-07-22T01:00:19;4.90;;;3.47;;
54849;SDS011;47660;51.334;12.396;2023-07-22T01:02:44;4.20;;;3.45;;
54849;SDS011;47660;51.334;12.396;2023-07-22T01:05:10;7.88;;;3.67;;
54849;SDS011;47660;51.334;12.396;2023-07-22T01:07:39;5.75;;;3.55;;
54849;SDS011;47660;51.334;12.396;2023-07-22T01:10:07;6.18;;;3.58;;
54849;SDS011;47660;51.334;12.396;2023-07-22T01:12:36;4.20;;;3.38;;
54849;SDS011;47660;51.334;12.396;2023-07-22T01:15:02;6.82;;;3.83;;
54849;SDS011;47660;51.334;12.396;2023-07-22T01:17:32;4.65;;;3.53;;
54849;SDS011;47660;51.334;12.396;2023-07-22T01:19:59;5.82;;;3.80;;
54849;SDS011;47660;51.334;12.396;2023-07-22T01:22:25;6.30;;;3.90;;
54849;SDS011;47660;51.334;12.396;2023-07-22T01:24:54;6.28;;;3.83;;
54849;SDS011;47660;51.334;12.396;2023-07-22T01:27:23;5.72;;;3.92;;
54849;SDS011;47660;51.334;12.396;2023-07-22T01:29:54;5.68;;;3.72;;
54849;SDS011;47660;51.334;12.396;2023-07-22T01:32:20;7.40;;;3.63;;
54849;SDS011;47660;51.334;12.396;2023-07-22T01:34:45;5.70;;;3.72;;
54849;SDS011;47660;51.334;12.396;2023-07-22T01:37:11;5.32;;;4.15;;
54849;SDS011;47660;51.334;12.396;2023-07-22T01:39:39;6.97;;;4.13;;
54849;SDS011;47660;51.334;12.396;2023-07-22T01:42:04;7.13;;;4.10;;
54849;SDS011;47660;51.334;12.396;2023-07-22T01:44:30;7.05;;;3.63;;
54849;SDS011;47660;51.334;12.396;2023-07-22T01:46:55;5.95;;;4.03;;
54849;SDS011;47660;51.334;12.396;2023-07-22T01:49:21;5.25;;;3.67;;
54849;SDS011;47660;51.334;12.396;2023-07-22T01:51:49;9.45;;;4.68;;
54849;SDS011;47660;51.334;12.396;2023-07-22T01:54:15;6.30;;;3.67;;
54849;SDS011;47660;51.334;12.396;2023-07-22T01:56:40;6.25;;;3.38;;
54849;SDS011;47660;51.334;12.396;2023-07-22T01:59:08;5.38;;;3.65;;
54849;SDS011;47660;51.334;12.396;2023-07-22T02:01:34;5.28;;;3.42;;
54849;SDS011;47660;51.334;12.396;2023-07-22T02:04:00;8.93;;;4.20;;
54849;SDS011;47660;51.334;12.396;2023-07-22T02:06:27;5.40;;;3.42;;
54849;SDS011;47660;51.334;12.396;2023-07-22T02:08:53;6.05;;;3.92;;
54849;SDS011;47660;51.334;12.396;2023-07-22T02:11:19;8.98;;;3.67;;
54849;SDS011;47660;51.334;12.396;2023-07-22T02:13:47;6.60;;;3.85;;
54849;SDS011;47660;51.334;12.396;2023-07-22T02:16:15;6.05;;;3.95;;
54849;SDS011;47660;51.334;12.396;2023-07-22T02:18:43;6.05;;;3.75;;
54849;SDS011;47660;51.334;12.396;2023-07-22T02:21:09;4.90;;;3.60;;
54849;SDS011;47660;51.334;12.396;2023-07-22T02:23:34;8.70;;;4.13;;
54849;SDS011;47660;51.334;12.396;2023-07-22T02:26:00;4.75;;;3.80;;
54849;SDS011;47660;51.334;12.396;2023-07-22T02:28:26;6.80;;;4.00;;
54849;SDS011;47660;51.334;12.396;2023-07-22T02:30:59;6.05;;;3.80;;
54849;SDS011;47660;51.334;12.396;2023-07-22T02:33:30;5.45;;;4.00;;
54849;SDS011;47660;51.334;12.396;2023-07-22T02:36:00;4.80;;;3.80;;
54849;SDS011;47660;51.334;12.396;2023-07-22T02:38:26;7.53;;;4.00;;
54849;SDS011;47660;51.334;12.396;2023-07-22T02:40:52;4.88;;;3.70;;
54849;SDS011;47660;51.334;12.396;2023-07-22T02:43:17;6.50;;;3.60;;
54849;SDS011;47660;51.334;12.396;2023-07-22T02:45:45;5.57;;;4.05;;
54849;SDS011;47660;51.334;12.396;2023-07-22T02:48:10;7.97;;;4.20;;
54849;SDS011;47660;51.334;12.396;2023-07-22T02:50:42;6.28;;;4.20;;
54849;SDS011;47660;51.334;12.396;2023-07-22T02:53:07;5.53;;;3.45;;
54849;SDS011;47660;51.334;12.396;2023-07-22T02:55:33;7.57;;;4.10;;
54849;SDS011;47660;51.334;12.396;2023-07-22T02:58:01;5.97;;;3.75;;
54849;SDS011;47660;51.334;12.396;2023-07-22T03:00:26;6.55;;;3.65;;
54849;SDS011;47660;51.334;12.396;2023-07-22T03:02:53;6.93;;;3.78;;
54849;SDS011;47660;51.334;12.396;2023-07-22T03:05:25;5.97;;;3.75;;
54849;SDS011;47660;51.334;12.396;2023-07-22T03:07:52;4.93;;;3.22;;
54849;SDS011;47660;51.334;12.396;2023-07-22T03:10:20;7.75;;;3.50;;
54849;SDS011;47660;51.334;12.396;2023-07-22T03:12:45;5.20;;;3.67;;
54849;SDS011;47660;51.334;12.396;2023-07-22T03:15:12;9.13;;;4.05;;
54849;SDS011;47660;51.334;12.396;2023-07-22T03:17:38;5.38;;;3.58;;
54849;SDS011;47660;51.334;12.396;2023-07-22T03:20:09;11.70;;;3.60;;
54849;SDS011;47660;51.334;12.396;2023-07-22T03:22:44;6.17;;;4.00;;
54849;SDS011;47660;51.334;12.396;2023-07-22T03:25:13;8.50;;;3.85;;
54849;SDS011;47660;51.334;12.396;2023-07-22T03:27:42;5.75;;;3.95;;
54849;SDS011;47660;51.334;12.396;2023-07-22T03:30:08;5.25;;;3.88;;
54849;SDS011;47660;51.334;12.396;2023-07-22T03:32:36;6.07;;;3.60;;
54849;SDS011;47660;51.334;12.396;2023-07-22T03:35:02;5.43;;;4.05;;
54849;SDS011;47660;51.334;12.396;2023-07-22T03:37:28;5.53;;;3.88;;
54849;SDS011;47660;51.334;12.396;2023-07-22T03:39:56;5.93;;;4.00;;
54849;SDS011;47660;51.334;12.396;2023-07-22T03:42:22;5.43;;;3.60;;
54849;SDS011;47660;51.334;12.396;2023-07-22T03:44:50;5.82;;;4.07;;
54849;SDS011;47660;51.334;12.396;2023-07-22T03:47:19;8.60;;;3.70;;
54849;SDS011;47660;51.334;12.396;2023-07-22T03:49:44;6.70;;;3.78;;
54849;SDS011;47660;51.334;12.396;2023-07-22T03:52:10;5.47;;;3.80;;
54849;SDS011;47660;51.334;12.396;2023-07-22T03:54:39;5.30;;;3.30;;
54849;SDS011;47660;51.334;12.396;2023-07-22T03:57:05;8.68;;;3.53;;
54849;SDS011;47660;51.334;12.396;2023-07-22T03:59:31;4.47;;;2.55;;
54849;SDS011;47660;51.334;12.396;2023-07-22T04:01:59;7.85;;;3.97;;
54849;SDS011;47660;51.334;12.396;2023-07-22T04:04:26;5.63;;;3.40;;
54849;SDS011;47660;51.334;12.396;2023-07-22T04:06:52;7.97;;;4.28;;
54849;SDS011;47660;51.334;12.396;2023-07-22T04:09:17;8.25;;;4.07;;
54849;SDS011;47660;51.334;12.396;2023-07-22T04:11:43;7.43;;;4.13;;
54849;SDS011;47660;51.334;12.396;2023-07-22T04:14:08;7.68;;;3.83;;
54849;SDS011;47660;51.334;12.396;2023-07-22T04:16:33;5.93;;;3.65;;
54849;SDS011;47660;51.334;12.396;2023-07-22T04:18:59;8.20;;;3.63;;
54849;SDS011;47660;51.334;12.396;2023-07-22T04:21:24;6.13;;;3.65;;
54849;SDS011;47660;51.334;12.396;2023-07-22T04:23:50;5.47;;;3.70;;
54849;SDS011;47660;51.334;12.396;2023-07-22T04:26:18;6.80;;;4.22;;
54849;SDS011;47660;51.334;12.396;2023-07-22T04:28:44;5.55;;;4.13;;
54849;SDS011;47660;51.334;12.396;2023-07-22T04:31:09;7.95;;;3.55;;
54849;SDS011;47660;51.334;12.396;2023-07-22T04:33:39;5.57;;;3.67;;
54849;SDS011;47660;51.334;12.396;2023-07-22T04:36:07;7.00;;;4.00;;
54849;SDS011;47660;51.334;12.396;2023-07-22T04:38:32;6.20;;;4.38;;
54849;SDS011;47660;51.334;12.396;2023-07-22T04:40:58;9.77;;;4.18;;
54849;SDS011;47660;51.334;12.396;2023-07-22T04:43:26;8.85;;;3.80;;
54849;SDS011;47660;51.334;12.396;2023-07-22T04:45:51;8.00;;;4.72;;
54849;SDS011;47660;51.334;12.396;2023-07-22T04:48:18;7.65;;;3.75;;
54849;SDS011;47660;51.334;12.396;2023-07-22T04:50:50;6.88;;;3.95;;
54849;SDS011;47660;51.334;12.396;2023-07-22T04:53:18;6.05;;;3.72;;
54849;SDS011;47660;51.334;12.396;2023-07-22T04:55:44;5.97;;;3.65;;
54849;SDS011;47660;51.334;12.396;2023-07-22T04:58:12;7.50;;;3.78;;
54849;SDS011;47660;51.334;12.396;2023-07-22T05:00:42;5.00;;;3.95;;
54849;SDS011;47660;51.334;12.396;2023-07-22T05:03:10;7.63;;;3.67;;
54849;SDS011;47660;51.334;12.396;2023-07-22T05:05:36;6.80;;;4.18;;
54849;SDS011;47660;51.334;12.396;2023-07-22T05:08:01;6.47;;;4.15;;
54849;SDS011;47660;51.334;12.396;2023-07-22T05:10:29;9.00;;;3.78;;
54849;SDS011;47660;51.334;12.396;2023-07-22T05:12:54;6.80;;;3.90;;
54849;SDS011;47660;51.334;12.396;2023-07-22T05:15:22;7.30;;;4.15;;
54849;SDS011;47660;51.334;12.396;2023-07-22T05:17:47;6.10;;;4.18;;
54849;SDS011;47660;51.334;12.396;2023-07-22T05:20:12;6.88;;;4.03;;
54849;SDS011;47660;51.334;12.396;2023-07-22T05:22:38;5.35;;;3.60;;
54849;SDS011;47660;51.334;12.396;2023-07-22T05:25:05;7.28;;;4.20;;
54849;SDS011;47660;51.334;12.396;2023-07-22T05:27:31;8.18;;;3.65;;
54849;SDS011;47660;51.334;12.396;2023-07-22T05:29:57;5.50;;;3.35;;
54849;SDS011;47660;51.334;12.396;2023-07-22T05:32:27;5.93;;;4.03;;
54849;SDS011;47660;51.334;12.396;2023-07-22T05:34:53;5.82;;;3.28;;
54849;SDS011;47660;51.334;12.396;2023-07-22T05:37:19;7.40;;;3.67;;
54849;SDS011;47660;51.334;12.396;2023-07-22T05:39:44;5.30;;;3.55;;
54849;SDS011;47660;51.334;12.396;2023-07-22T05:42:12;7.28;;;3.60;;
54849;SDS011;47660;51.334;12.396;2023-07-22T05:44:40;9.73;;;3.42;;
54849;SDS011;47660;51.334;12.396;2023-07-22T05:47:05;9.73;;;3.92;;
54849;SDS011;47660;51.334;12.396;2023-07-22T05:49:31;6.22;;;4.13;;
54849;SDS011;47660;51.334;12.396;2023-07-22T05:51:56;7.47;;;3.67;;
54849;SDS011;47660;51.334;12.396;2023-07-22T05:54:22;9.57;;;3.88;;
54849;SDS011;47660;51.334;12.396;2023-07-22T05:56:47;7.47;;;3.72;;
54849;SDS011;47660;51.334;12.396;2023-07-22T05:59:15;6.68;;;3.58;;
54849;SDS011;47660;51.334;12.396;2023-07-22T06:01:43;7.13;;;3.97;;
54849;SDS011;47660;51.334;12.396;2023-07-22T06:04:08;5.60;;;3.42;;
54849;SDS011;47660;51.334;12.396;2023-07-22T06:06:34;8.20;;;3.75;;
54849;SDS011;47660;51.334;12.396;2023-07-22T06:09:03;6.10;;;3.00;;
54849;SDS011;47660;51.334;12.396;2023-07-22T06:11:31;7.93;;;4.05;;
54849;SDS011;47660;51.334;12.396;2023-07-22T06:13:57;5.57;;;3.58;;
54849;SDS011;47660;51.334;12.396;2023-07-22T06:16:22;7.22;;;3.50;;
54849;SDS011;47660;51.334;12.396;2023-07-22T06:18:47;7.25;;;3.63;;
54849;SDS011;47660;51.334;12.396;2023-07-22T06:21:13;6.10;;;3.40;;
54849;SDS011;47660;51.334;12.396;2023-07-22T06:23:38;6.82;;;3.28;;
54849;SDS011;47660;51.334;12.396;2023-07-22T06:26:04;6.68;;;3.38;;
54849;SDS011;47660;51.334;12.396;2023-07-22T06:28:29;6.30;;;3.90;;
54849;SDS011;47660;51.334;12.396;2023-07-22T06:30:55;7.05;;;2.97;;
54849;SDS011;47660;51.334;12.396;2023-07-22T06:33:20;6.32;;;3.47;;
54849;SDS011;47660;51.334;12.396;2023-07-22T06:35:48;5.32;;;3.38;;
54849;SDS011;47660;51.334;12.396;2023-07-22T06:38:17;5.70;;;3.63;;
54849;SDS011;47660;51.334;12.396;2023-07-22T06:40:43;8.95;;;3.60;;
54849;SDS011;47660;51.334;12.396;2023-07-22T06:43:08;6.72;;;3.58;;
54849;SDS011;47660;51.334;12.396;2023-07-22T06:45:36;5.05;;;2.80;;
54849;SDS011;47660;51.334;12.396;2023-07-22T06:48:04;7.28;;;3.25;;
54849;SDS011;47660;51.334;12.396;2023-07-22T06:50:32;6.78;;;3.65;;
54849;SDS011;47660;51.334;12.396;2023-07-22T06:52:57;5.63;;;3.35;;
54849;SDS011;47660;51.334;12.396;2023-07-22T06:55:23;6.07;;;3.53;;
54849;SDS011;47660;51.334;12.396;2023-07-22T06:57:48;7.00;;;3.65;;
54849;SDS011;47660;51.334;12.396;2023-07-22T07:00:16;5.55;;;2.72;;
54849;SDS011;47660;51.334;12.396;2023-07-22T07:02:41;5.60;;;2.85;;
54849;SDS011;47660;51.334;12.396;2023-07-22T07:05:09;4.82;;;2.90;;
54849;SDS011;47660;51.334;12.396;2023-07-22T07:07:44;4.78;;;2.35;;
54849;SDS011;47660;51.334;12.396;2023-07-22T07:10:09;5.63;;;2.95;;
54849;SDS011;47660;51.334;12.396;2023-07-22T07:12:35;4.03;;;2.53;;
54849;SDS011;47660;51.334;12.396;2023-07-22T07:15:00;4.82;;;2.65;;
54849;SDS011;47660;51.334;12.396;2023-07-22T07:17:28;7.63;;;3.10;;
54849;SDS011;47660;51.334;12.396;2023-07-22T07:19:53;4.95;;;2.83;;
54849;SDS011;47660;51.334;12.396;2023-07-22T07:22:19;4.97;;;2.80;;
54849;SDS011;47660;51.334;12.396;2023-07-22T07:24:44;5.47;;;2.72;;
54849;SDS011;47660;51.334;12.396;2023-07-22T07:27:12;3.95;;;2.13;;
54849;SDS011;47660;51.334;12.396;2023-07-22T07:29:40;4.80;;;2.05;;
54849;SDS011;47660;51.334;12.396;2023-07-22T07:32:05;4.32;;;2.55;;
54849;SDS011;47660;51.334;12.396;2023-07-22T07:34:31;6.38;;;3.00;;
54849;SDS011;47660;51.334;12.396;2023-07-22T07:36:59;4.47;;;2.53;;
54849;SDS011;47660;51.334;12.396;2023-07-22T07:39:24;4.35;;;2.40;;
54849;SDS011;47660;51.334;12.396;2023-07-22T07:41:54;4.68;;;2.75;;
54849;SDS011;47660;51.334;12.396;2023-07-22T07:44:19;3.50;;;1.95;;
54849;SDS011;47660;51.334;12.396;2023-07-22T07:46:44;3.60;;;1.98;;
54849;SDS011;47660;51.334;12.396;2023-07-22T07:49:10;3.08;;;1.98;;
54849;SDS011;47660;51.334;12.396;2023-07-22T07:51:35;4.20;;;2.22;;
54849;SDS011;47660;51.334;12.396;2023-07-22T07:54:03;4.20;;;2.08;;
54849;SDS011;47660;51.334;12.396;2023-07-22T07:56:32;2.38;;;1.58;;
54849;SDS011;47660;51.334;12.396;2023-07-22T07:58:57;3.83;;;1.80;;
54849;SDS011;47660;51.334;12.396;2023-07-22T08:01:22;3.13;;;2.13;;
54849;SDS011;47660;51.334;12.396;2023-07-22T08:03:48;2.88;;;1.83;;
54849;SDS011;47660;51.334;12.396;2023-07-22T08:06:14;4.40;;;2.00;;
54849;SDS011;47660;51.334;12.396;2023-07-22T08:08:42;1.42;;;0.95;;
54849;SDS011;47660;51.334;12.396;2023-07-22T08:11:08;3.00;;;1.60;;
54849;SDS011;47660;51.334;12.396;2023-07-22T08:13:35;5.20;;;1.80;;
54849;SDS011;47660;51.334;12.396;2023-07-22T08:16:05;2.95;;;1.60;;
54849;SDS011;47660;51.334;12.396;2023-07-22T08:18:35;2.83;;;1.50;;
54849;SDS011;47660;51.334;12.396;2023-07-22T08:21:01;3.53;;;1.90;;
54849;SDS011;47660;51.334;12.396;2023-07-22T08:23:32;3.45;;;1.60;;
54849;SDS011;47660;51.334;12.396;2023-07-22T08:25:57;6.20;;;2.20;;
54849;SDS011;47660;51.334;12.396;2023-07-22T08:28:25;3.05;;;1.92;;
54849;SDS011;47660;51.334;12.396;2023-07-22T08:30:55;5.72;;;2.08;;
54849;SDS011;47660;51.334;12.396;2023-07-22T08:33:21;3.70;;;2.03;;
54849;SDS011;47660;51.334;12.396;2023-07-22T08:35:52;4.57;;;2.72;;
54849;SDS011;47660;51.334;12.396;2023-07-22T08:38:18;6.10;;;2.85;;
54849;SDS011;47660;51.334;12.396;2023-07-22T08:40:48;3.45;;;2.38;;
54849;SDS011;47660;51.334;12.396;2023-07-22T08:43:16;4.18;;;2.25;;
54849;SDS011;47660;51.334;12.396;2023-07-22T08:45:47;3.67;;;2.40;;
54849;SDS011;47660;51.334;12.396;2023-07-22T08:48:17;5.07;;;2.90;;
54849;SDS011;47660;51.334;12.396;2023-07-22T08:50:49;4.55;;;2.47;;
54849;SDS011;47660;51.334;12.396;2023-07-22T08:53:15;2.88;;;2.13;;
54849;SDS011;47660;51.334;12.396;2023-07-22T08:55:41;5.18;;;2.38;;
54849;SDS011;47660;51.334;12.396;2023-07-22T08:58:10;5.07;;;2.78;;
54849;SDS011;47660;51.334;12.396;2023-07-22T09:00:36;5.50;;;2.83;;
54849;SDS011;47660;51.334;12.396;2023-07-22T09:03:06;9.00;;;3.15;;
54849;SDS011;47660;51.334;12.396;2023-07-22T09:05:32;3.90;;;2.20;;
54849;SDS011;47660;51.334;12.396;2023-07-22T09:08:00;3.83;;;2.55;;
54849;SDS011;47660;51.334;12.396;2023-07-22T09:10:27;2.70;;;2.35;;
54849;SDS011;47660;51.334;12.396;2023-07-22T09:12:53;5.20;;;2.10;;
54849;SDS011;47660;51.334;12.396;2023-07-22T09:15:19;3.30;;;2.10;;
54849;SDS011;47660;51.334;12.396;2023-07-22T09:17:45;5.07;;;2.00;;
54849;SDS011;47660;51.334;12.396;2023-07-22T09:20:12;3.90;;;2.28;;
54849;SDS011;47660;51.334;12.396;2023-07-22T09:22:51;2.88;;;1.92;;
54849;SDS011;47660;51.334;12.396;2023-07-22T09:27:49;2.53;;;2.08;;
54849;SDS011;47660;51.334;12.396;2023-07-22T09:30:36;3.25;;;1.70;;
54849;SDS011;47660;51.334;12.396;2023-07-22T09:33:08;3.00;;;1.50;;
54849;SDS011;47660;51.334;12.396;2023-07-22T09:35:46;2.97;;;1.90;;
54849;SDS011;47660;51.334;12.396;2023-07-22T09:38:14;3.00;;;2.10;;
54849;SDS011;47660;51.334;12.396;2023-07-22T09:40:42;4.63;;;2.05;;
54849;SDS011;47660;51.334;12.396;2023-07-22T09:43:11;5.95;;;1.67;;
54849;SDS011;47660;51.334;12.396;2023-07-22T09:45:39;2.40;;;1.95;;
54849;SDS011;47660;51.334;12.396;2023-07-22T09:48:09;4.55;;;2.00;;
54849;SDS011;47660;51.334;12.396;2023-07-22T09:50:37;2.33;;;1.40;;
54849;SDS011;47660;51.334;12.396;2023-07-22T09:53:03;3.17;;;1.92;;
54849;SDS011;47660;51.334;12.396;2023-07-22T09:55:35;2.85;;;1.38;;
54849;SDS011;47660;51.334;12.396;2023-07-22T09:58:01;2.85;;;2.00;;
54849;SDS011;47660;51.334;12.396;2023-07-22T10:00:28;3.67;;;1.92;;
54849;SDS011;47660;51.334;12.396;2023-07-22T10:02:56;2.58;;;1.77;;
54849;SDS011;47660;51.334;12.396;2023-07-22T10:05:26;2.13;;;1.63;;
54849;SDS011;47660;51.334;12.396;2023-07-22T10:07:58;3.53;;;1.95;;
54849;SDS011;47660;51.334;12.396;2023-07-22T10:10:34;2.40;;;1.45;;
54849;SDS011;47660;51.334;12.396;2023-07-22T10:13:02;2.33;;;1.70;;
54849;SDS011;47660;51.334;12.396;2023-07-22T10:15:29;2.40;;;1.27;;
54849;SDS011;47660;51.334;12.396;2023-07-22T10:17:55;2.80;;;1.63;;
54849;SDS011;47660;51.334;12.396;2023-07-22T10:20:22;3.25;;;1.63;;
54849;SDS011;47660;51.334;12.396;2023-07-22T10:22:48;2.22;;;1.75;;
54849;SDS011;47660;51.334;12.396;2023-07-22T10:25:15;2.75;;;1.60;;
54849;SDS011;47660;51.334;12.396;2023-07-22T10:27:42;1.70;;;1.15;;
54849;SDS011;47660;51.334;12.396;2023-07-22T10:30:09;3.28;;;1.70;;
54849;SDS011;47660;51.334;12.396;2023-07-22T10:32:38;1.67;;;1.23;;
54849;SDS011;47660;51.334;12.396;2023-07-22T10:35:09;3.97;;;1.80;;
54849;SDS011;47660;51.334;12.396;2023-07-22T10:37:44;3.50;;;2.15;;
54849;SDS011;47660;51.334;12.396;2023-07-22T10:40:17;2.03;;;1.48;;
54849;SDS011;47660;51.334;12.396;2023-07-22T10:42:53;2.25;;;1.60;;
54849;SDS011;47660;51.334;12.396;2023-07-22T10:45:24;1.77;;;1.48;;
54849;SDS011;47660;51.334;12.396;2023-07-22T10:47:59;3.88;;;1.88;;
54849;SDS011;47660;51.334;12.396;2023-07-22T10:50:43;3.70;;;1.60;;
54849;SDS011;47660;51.334;12.396;2023-07-22T11:01:24;1.98;;;1.23;;
54849;SDS011;47660;51.334;12.396;2023-07-22T11:11:56;2.88;;;1.65;;
54849;SDS011;47660;51.334;12.396;2023-07-22T11:14:23;2.60;;;1.10;;
54849;SDS011;47660;51.334;12.396;2023-07-22T11:16:50;2.85;;;1.70;;
54849;SDS011;47660;51.334;12.396;2023-07-22T11:19:25;1.90;;;1.40;;
54849;SDS011;47660;51.334;12.396;2023-07-22T11:21:51;2.70;;;1.42;;
54849;SDS011;47660;51.334;12.396;2023-07-22T11:24:18;2.58;;;1.70;;
54849;SDS011;47660;51.334;12.396;2023-07-22T11:26:45;2.40;;;1.20;;
54849;SDS011;47660;51.334;12.396;2023-07-22T11:29:14;3.47;;;1.35;;
54849;SDS011;47660;51.334;12.396;2023-07-22T11:31:41;2.60;;;1.45;;
54849;SDS011;47660;51.334;12.396;2023-07-22T11:36:59;2.10;;;1.10;;
54849;SDS011;47660;51.334;12.396;2023-07-22T11:39:30;3.95;;;1.77;;
54849;SDS011;47660;51.334;12.396;2023-07-22T11:41:57;2.97;;;1.30;;
54849;SDS011;47660;51.334;12.396;2023-07-22T11:44:29;3.65;;;1.60;;
54849;SDS011;47660;51.334;12.396;2023-07-22T11:47:02;2.55;;;1.58;;
54849;SDS011;47660;51.334;12.396;2023-07-22T11:52:05;2.55;;;1.60;;
54849;SDS011;47660;51.334;12.396;2023-07-22T11:54:41;2.95;;;1.67;;
54849;SDS011;47660;51.334;12.396;2023-07-22T11:59:49;2.38;;;1.60;;
54849;SDS011;47660;51.334;12.396;2023-07-22T12:02:16;3.10;;;1.88;;
54849;SDS011;47660;51.334;12.396;2023-07-22T12:04:43;2.97;;;1.40;;
54849;SDS011;47660;51.334;12.396;2023-07-22T12:07:28;1.60;;;1.30;;
54849;SDS011;47660;51.334;12.396;2023-07-22T12:09:59;2.58;;;1.50;;
54849;SDS011;47660;51.334;12.396;2023-07-22T12:12:35;3.20;;;1.60;;
54849;SDS011;47660;51.334;12.396;2023-07-22T12:17:47;2.33;;;1.45;;
54849;SDS011;47660;51.334;12.396;2023-07-22T12:20:16;2.22;;;1.38;;
54849;SDS011;47660;51.334;12.396;2023-07-22T12:22:46;2.30;;;1.33;;
54849;SDS011;47660;51.334;12.396;2023-07-22T12:25:16;3.20;;;2.03;;
54849;SDS011;47660;51.334;12.396;2023-07-22T12:27:43;3.85;;;1.98;;
54849;SDS011;47660;51.334;12.396;2023-07-22T12:30:09;2.60;;;1.48;;
54849;SDS011;47660;51.334;12.396;2023-07-22T12:32:34;1.40;;;1.23;;
54849;SDS011;47660;51.334;12.396;2023-07-22T12:35:00;2.50;;;1.65;;
54849;SDS011;47660;51.334;12.396;2023-07-22T12:37:28;3.15;;;1.80;;
54849;SDS011;47660;51.334;12.396;2023-07-22T12:39:54;2.35;;;1.58;;
54849;SDS011;47660;51.334;12.396;2023-07-22T12:42:19;2.50;;;1.60;;
54849;SDS011;47660;51.334;12.396;2023-07-22T12:44:45;3.22;;;1.98;;
54849;SDS011;47660;51.334;12.396;2023-07-22T12:47:12;3.22;;;1.90;;
54849;SDS011;47660;51.334;12.396;2023-07-22T12:49:38;3.30;;;1.60;;
54849;SDS011;47660;51.334;12.396;2023-07-22T12:52:06;2.30;;;1.58;;
54849;SDS011;47660;51.334;12.396;2023-07-22T12:54:34;2.50;;;1.83;;
54849;SDS011;47660;51.334;12.396;2023-07-22T12:57:03;2.78;;;1.38;;
54849;SDS011;47660;51.334;12.396;2023-07-22T12:59:29;3.15;;;1.70;;
54849;SDS011;47660;51.334;12.396;2023-07-22T13:01:55;2.50;;;1.60;;
54849;SDS011;47660;51.334;12.396;2023-07-22T13:04:23;3.45;;;2.00;;
54849;SDS011;47660;51.334;12.396;2023-07-22T13:06:49;3.35;;;1.73;;
54849;SDS011;47660;51.334;12.396;2023-07-22T13:09:16;2.42;;;1.73;;
54849;SDS011;47660;51.334;12.396;2023-07-22T13:11:44;8.40;;;1.70;;
54849;SDS011;47660;51.334;12.396;2023-07-22T13:14:10;2.67;;;1.70;;
54849;SDS011;47660;51.334;12.396;2023-07-22T13:16:36;2.55;;;1.60;;
54849;SDS011;47660;51.334;12.396;2023-07-22T13:19:01;2.30;;;1.52;;
54849;SDS011;47660;51.334;12.396;2023-07-22T13:21:28;2.83;;;1.85;;
54849;SDS011;47660;51.334;12.396;2023-07-22T13:23:58;2.75;;;1.63;;
54849;SDS011;47660;51.334;12.396;2023-07-22T13:26:23;3.40;;;1.90;;
54849;SDS011;47660;51.334;12.396;2023-07-22T13:28:48;3.47;;;1.85;;
54849;SDS011;47660;51.334;12.396;2023-07-22T13:31:15;3.78;;;1.77;;
54849;SDS011;47660;51.334;12.396;2023-07-22T13:33:40;3.95;;;1.95;;
54849;SDS011;47660;51.334;12.396;2023-07-22T13:36:06;2.92;;;1.58;;
54849;SDS011;47660;51.334;12.396;2023-07-22T13:38:31;2.45;;;1.50;;
54849;SDS011;47660;51.334;12.396;2023-07-22T13:40:57;4.07;;;2.00;;
54849;SDS011;47660;51.334;12.396;2023-07-22T13:43:22;2.58;;;1.65;;
54849;SDS011;47660;51.334;12.396;2023-07-22T13:45:47;4.40;;;1.90;;
54849;SDS011;47660;51.334;12.396;2023-07-22T13:48:13;2.55;;;1.80;;
54849;SDS011;47660;51.334;12.396;2023-07-22T13:50:41;2.08;;;1.67;;
54849;SDS011;47660;51.334;12.396;2023-07-22T13:53:09;2.88;;;1.60;;
54849;SDS011;47660;51.334;12.396;2023-07-22T13:55:34;1.98;;;1.58;;
54849;SDS011;47660;51.334;12.396;2023-07-22T13:58:00;3.50;;;1.80;;
54849;SDS011;47660;51.334;12.396;2023-07-22T14:00:27;3.40;;;1.90;;
54849;SDS011;47660;51.334;12.396;2023-07-22T14:02:56;2.30;;;1.70;;
54849;SDS011;47660;51.334;12.396;2023-07-22T14:05:22;3.30;;;1.80;;
54849;SDS011;47660;51.334;12.396;2023-07-22T14:07:47;3.78;;;1.52;;
54849;SDS011;47660;51.334;12.396;2023-07-22T14:10:13;2.33;;;1.55;;
54849;SDS011;47660;51.334;12.396;2023-07-22T14:12:38;2.85;;;2.03;;
54849;SDS011;47660;51.334;12.396;2023-07-22T14:15:06;2.50;;;1.70;;
54849;SDS011;47660;51.334;12.396;2023-07-22T14:17:34;2.15;;;1.80;;
54849;SDS011;47660;51.334;12.396;2023-07-22T14:20:08;2.30;;;1.77;;
54849;SDS011;47660;51.334;12.396;2023-07-22T14:22:36;2.53;;;1.90;;
54849;SDS011;47660;51.334;12.396;2023-07-22T14:25:02;1.80;;;1.50;;
54849;SDS011;47660;51.334;12.396;2023-07-22T14:27:29;2.10;;;1.75;;
54849;SDS011;47660;51.334;12.396;2023-07-22T14:29:55;2.55;;;1.73;;
54849;SDS011;47660;51.334;12.396;2023-07-22T14:32:20;2.63;;;1.90;;
54849;SDS011;47660;51.334;12.396;2023-07-22T14:34:48;2.33;;;1.88;;
54849;SDS011;47660;51.334;12.396;2023-07-22T14:37:16;2.45;;;1.77;;
54849;SDS011;47660;51.334;12.396;2023-07-22T14:39:44;3.47;;;1.73;;
54849;SDS011;47660;51.334;12.396;2023-07-22T14:42:10;2.47;;;1.55;;
54849;SDS011;47660;51.334;12.396;2023-07-22T14:44:38;4.35;;;1.92;;
54849;SDS011;47660;51.334;12.396;2023-07-22T14:47:04;2.72;;;1.92;;
54849;SDS011;47660;51.334;12.396;2023-07-22T14:49:32;2.58;;;1.70;;
54849;SDS011;47660;51.334;12.396;2023-07-22T14:51:59;2.97;;;1.77;;
54849;SDS011;47660;51.334;12.396;2023-07-22T14:54:25;2.53;;;2.00;;
54849;SDS011;47660;51.334;12.396;2023-07-22T14:56:50;2.08;;;1.85;;
54849;SDS011;47660;51.334;12.396;2023-07-22T14:59:16;3.08;;;1.95;;
54849;SDS011;47660;51.334;12.396;2023-07-22T15:01:41;2.53;;;1.70;;
54849;SDS011;47660;51.334;12.396;2023-07-22T15:04:08;2.70;;;1.40;;